LIMJ/GOA METAR and TAF weather

Enter ICAO airport designator
Station Type Date Time Source
LIMJ METAR 2021/07/27 22:20 UTC NOAA

LIMJ 272220Z 18006KT 9999 SCT008 25/25 Q1015


Station Type Date Time Source
LIMJ Decoded METAR 2021/07/27 22:20 UTC NOAA

Genova / Sestri, Italy (LIMJ) 44-25N 008-51E 3M
Jul 27, 2021 - 06:20 PM EDT / 2021.07.27 2220 UTC
Wind: from the S (180 degrees) at 7 MPH (6 KT):0
Visibility: greater than 7 mile(s):0
Sky conditions: partly cloudy
Temperature: 77 F (25 C)
Dew Point: 77 F (25 C)
Relative Humidity: 100%
Pressure (altimeter): 29.97 in. Hg (1015 hPa)
ob: LIMJ 272220Z 18006KT 9999 SCT008 25/25 Q1015
cycle: 22

Station Type Date Time Source
LIMJ TAF 2021/07/27 18:21 UTC NOAA

TAF LIMJ 271700Z 2718/2818 16010KT 8000 SCT015

Example: see airport list